sensor_id;sensor_type;location;lat;lon;timestamp;temperature;humidity
7518;DHT22;3800;48.922;9.444;2024-01-30T00:01:47;1.00;99.90
7518;DHT22;3800;48.922;9.444;2024-01-30T00:04:15;1.00;99.90
7518;DHT22;3800;48.922;9.444;2024-01-30T00:06:45;1.00;99.90
7518;DHT22;3800;48.922;9.444;2024-01-30T00:09:13;1.00;99.90
7518;DHT22;3800;48.922;9.444;2024-01-30T00:11:42;1.00;99.90
7518;DHT22;3800;48.922;9.444;2024-01-30T00:14:11;1.00;99.90
7518;DHT22;3800;48.922;9.444;2024-01-30T00:16:39;1.00;99.90
7518;DHT22;3800;48.922;9.444;2024-01-30T00:19:07;0.90;99.90
7518;DHT22;3800;48.922;9.444;2024-01-30T00:21:35;0.90;99.90
7518;DHT22;3800;48.922;9.444;2024-01-30T00:24:05;0.80;99.90
7518;DHT22;3800;48.922;9.444;2024-01-30T00:26:33;0.60;99.90
7518;DHT22;3800;48.922;9.444;2024-01-30T00:29:01;0.60;99.90
7518;DHT22;3800;48.922;9.444;2024-01-30T00:31:29;0.60;99.90
7518;DHT22;3800;48.922;9.444;2024-01-30T00:33:58;0.60;99.90
7518;DHT22;3800;48.922;9.444;2024-01-30T00:36:26;0.60;99.90
7518;DHT22;3800;48.922;9.444;2024-01-30T00:38:54;0.60;99.90
7518;DHT22;3800;48.922;9.444;2024-01-30T00:41:22;0.50;99.90
7518;DHT22;3800;48.922;9.444;2024-01-30T00:43:51;0.50;99.90
7518;DHT22;3800;48.922;9.444;2024-01-30T00:46:19;0.50;99.90
7518;DHT22;3800;48.922;9.444;2024-01-30T00:48:47;0.50;99.90
7518;DHT22;3800;48.922;9.444;2024-01-30T00:51:16;0.50;99.90
7518;DHT22;3800;48.922;9.444;2024-01-30T00:53:44;0.50;99.90
7518;DHT22;3800;48.922;9.444;2024-01-30T00:56:14;0.50;99.90
7518;DHT22;3800;48.922;9.444;2024-01-30T00:58:43;0.50;99.90
7518;DHT22;3800;48.922;9.444;2024-01-30T01:01:12;0.50;99.90
7518;DHT22;3800;48.922;9.444;2024-01-30T01:03:41;0.50;99.90
7518;DHT22;3800;48.922;9.444;2024-01-30T01:06:09;0.60;99.90
7518;DHT22;3800;48.922;9.444;2024-01-30T01:08:37;0.60;99.90
7518;DHT22;3800;48.922;9.444;2024-01-30T01:11:06;0.70;99.90
7518;DHT22;3800;48.922;9.444;2024-01-30T01:13:35;0.70;99.90
7518;DHT22;3800;48.922;9.444;2024-01-30T01:16:04;0.70;99.90
7518;DHT22;3800;48.922;9.444;2024-01-30T01:18:33;0.70;99.90
7518;DHT22;3800;48.922;9.444;2024-01-30T01:21:02;0.70;99.90
7518;DHT22;3800;48.922;9.444;2024-01-30T01:23:30;0.70;99.90
7518;DHT22;3800;48.922;9.444;2024-01-30T01:25:58;0.70;99.90
7518;DHT22;3800;48.922;9.444;2024-01-30T01:28:27;0.70;99.90
7518;DHT22;3800;48.922;9.444;2024-01-30T01:30:56;0.70;99.90
7518;DHT22;3800;48.922;9.444;2024-01-30T01:33:25;0.60;99.90
7518;DHT22;3800;48.922;9.444;2024-01-30T01:35:53;0.60;99.90
7518;DHT22;3800;48.922;9.444;2024-01-30T01:38:21;0.60;99.90
7518;DHT22;3800;48.922;9.444;2024-01-30T01:40:50;0.60;99.90
7518;DHT22;3800;48.922;9.444;2024-01-30T01:43:20;0.60;99.90
7518;DHT22;3800;48.922;9.444;2024-01-30T01:45:48;0.60;99.90
7518;DHT22;3800;48.922;9.444;2024-01-30T01:48:17;0.50;99.90
7518;DHT22;3800;48.922;9.444;2024-01-30T01:50:45;0.50;99.90
7518;DHT22;3800;48.922;9.444;2024-01-30T01:53:13;0.50;99.90
7518;DHT22;3800;48.922;9.444;2024-01-30T01:55:42;0.50;99.90
7518;DHT22;3800;48.922;9.444;2024-01-30T01:58:10;0.40;99.90
7518;DHT22;3800;48.922;9.444;2024-01-30T02:00:38;0.40;99.90
7518;DHT22;3800;48.922;9.444;2024-01-30T02:03:08;0.30;99.90
7518;DHT22;3800;48.922;9.444;2024-01-30T02:05:36;0.30;99.90
7518;DHT22;3800;48.922;9.444;2024-01-30T02:08:04;0.30;99.90
7518;DHT22;3800;48.922;9.444;2024-01-30T02:10:33;0.30;99.90
7518;DHT22;3800;48.922;9.444;2024-01-30T02:13:01;0.30;99.90
7518;DHT22;3800;48.922;9.444;2024-01-30T02:15:29;0.30;99.90
7518;DHT22;3800;48.922;9.444;2024-01-30T02:17:57;0.30;99.90
7518;DHT22;3800;48.922;9.444;2024-01-30T02:20:26;0.30;99.90
7518;DHT22;3800;48.922;9.444;2024-01-30T02:22:56;0.30;99.90
7518;DHT22;3800;48.922;9.444;2024-01-30T02:25:32;0.40;99.90
7518;DHT22;3800;48.922;9.444;2024-01-30T02:28:00;0.40;99.90
7518;DHT22;3800;48.922;9.444;2024-01-30T02:30:28;0.40;99.90
7518;DHT22;3800;48.922;9.444;2024-01-30T02:32:57;0.40;99.90
7518;DHT22;3800;48.922;9.444;2024-01-30T02:35:25;0.40;99.90
7518;DHT22;3800;48.922;9.444;2024-01-30T02:37:53;0.40;99.90
7518;DHT22;3800;48.922;9.444;2024-01-30T02:40:22;0.40;99.90
7518;DHT22;3800;48.922;9.444;2024-01-30T02:42:50;0.40;99.90
7518;DHT22;3800;48.922;9.444;2024-01-30T02:45:19;0.30;99.90
7518;DHT22;3800;48.922;9.444;2024-01-30T02:47:47;0.30;99.90
7518;DHT22;3800;48.922;9.444;2024-01-30T02:50:15;0.30;99.90
7518;DHT22;3800;48.922;9.444;2024-01-30T02:52:44;0.30;99.90
7518;DHT22;3800;48.922;9.444;2024-01-30T02:55:12;0.30;99.90
7518;DHT22;3800;48.922;9.444;2024-01-30T02:57:40;0.30;99.90
7518;DHT22;3800;48.922;9.444;2024-01-30T03:00:10;0.30;99.90
7518;DHT22;3800;48.922;9.444;2024-01-30T03:02:38;0.30;99.90
7518;DHT22;3800;48.922;9.444;2024-01-30T03:05:07;0.30;99.90
7518;DHT22;3800;48.922;9.444;2024-01-30T03:07:35;0.30;99.90
7518;DHT22;3800;48.922;9.444;2024-01-30T03:10:04;0.20;99.90
7518;DHT22;3800;48.922;9.444;2024-01-30T03:12:34;0.20;99.90
7518;DHT22;3800;48.922;9.444;2024-01-30T03:15:02;0.20;99.90
7518;DHT22;3800;48.922;9.444;2024-01-30T03:17:31;0.20;99.90
7518;DHT22;3800;48.922;9.444;2024-01-30T03:19:59;0.20;99.90
7518;DHT22;3800;48.922;9.444;2024-01-30T03:22:27;0.20;99.90
7518;DHT22;3800;48.922;9.444;2024-01-30T03:24:55;0.20;99.90
7518;DHT22;3800;48.922;9.444;2024-01-30T03:27:24;0.20;99.90
7518;DHT22;3800;48.922;9.444;2024-01-30T03:29:52;0.20;99.90
7518;DHT22;3800;48.922;9.444;2024-01-30T03:32:20;0.10;99.90
7518;DHT22;3800;48.922;9.444;2024-01-30T03:34:48;0.10;99.90
7518;DHT22;3800;48.922;9.444;2024-01-30T03:37:17;0.10;99.90
7518;DHT22;3800;48.922;9.444;2024-01-30T03:39:45;0.10;99.90
7518;DHT22;3800;48.922;9.444;2024-01-30T03:42:13;0.00;99.90
7518;DHT22;3800;48.922;9.444;2024-01-30T03:44:42;0.00;99.90
7518;DHT22;3800;48.922;9.444;2024-01-30T03:47:11;0.00;99.90
7518;DHT22;3800;48.922;9.444;2024-01-30T03:49:39;0.00;99.90
7518;DHT22;3800;48.922;9.444;2024-01-30T03:52:08;0.00;99.90
7518;DHT22;3800;48.922;9.444;2024-01-30T03:54:36;0.00;99.90
7518;DHT22;3800;48.922;9.444;2024-01-30T03:57:04;0.00;99.90
7518;DHT22;3800;48.922;9.444;2024-01-30T03:59:33;0.00;99.90
7518;DHT22;3800;48.922;9.444;2024-01-30T04:02:01;0.00;99.90
7518;DHT22;3800;48.922;9.444;2024-01-30T04:04:29;0.00;99.90
7518;DHT22;3800;48.922;9.444;2024-01-30T04:06:57;0.00;99.90
7518;DHT22;3800;48.922;9.444;2024-01-30T04:09:26;0.00;99.90
7518;DHT22;3800;48.922;9.444;2024-01-30T04:11:54;-0.10;99.90
7518;DHT22;3800;48.922;9.444;2024-01-30T04:14:22;-0.10;99.90
7518;DHT22;3800;48.922;9.444;2024-01-30T04:16:50;-0.20;99.90
7518;DHT22;3800;48.922;9.444;2024-01-30T04:19:19;-0.20;99.90
7518;DHT22;3800;48.922;9.444;2024-01-30T04:21:48;-0.20;99.90
7518;DHT22;3800;48.922;9.444;2024-01-30T04:24:16;-0.20;99.90
7518;DHT22;3800;48.922;9.444;2024-01-30T04:26:45;-0.30;99.90
7518;DHT22;3800;48.922;9.444;2024-01-30T04:29:13;-0.30;99.90
7518;DHT22;3800;48.922;9.444;2024-01-30T04:31:42;-0.30;99.90
7518;DHT22;3800;48.922;9.444;2024-01-30T04:34:10;-0.30;99.90
7518;DHT22;3800;48.922;9.444;2024-01-30T04:36:38;-0.30;99.90
7518;DHT22;3800;48.922;9.444;2024-01-30T04:39:07;-0.30;99.90
7518;DHT22;3800;48.922;9.444;2024-01-30T04:41:35;-0.30;99.90
7518;DHT22;3800;48.922;9.444;2024-01-30T04:44:03;-0.40;99.90
7518;DHT22;3800;48.922;9.444;2024-01-30T04:46:32;-0.30;99.90
7518;DHT22;3800;48.922;9.444;2024-01-30T04:49:00;-0.30;99.90
7518;DHT22;3800;48.922;9.444;2024-01-30T04:51:28;-0.30;99.90
7518;DHT22;3800;48.922;9.444;2024-01-30T04:53:57;-0.30;99.90
7518;DHT22;3800;48.922;9.444;2024-01-30T04:56:26;-0.40;99.90
7518;DHT22;3800;48.922;9.444;2024-01-30T04:58:55;-0.40;99.90
7518;DHT22;3800;48.922;9.444;2024-01-30T05:01:23;-0.30;99.90
7518;DHT22;3800;48.922;9.444;2024-01-30T05:03:53;-0.30;99.90
7518;DHT22;3800;48.922;9.444;2024-01-30T05:06:25;-0.30;99.90
7518;DHT22;3800;48.922;9.444;2024-01-30T05:08:53;-0.30;99.90
7518;DHT22;3800;48.922;9.444;2024-01-30T05:11:21;-0.30;99.90
7518;DHT22;3800;48.922;9.444;2024-01-30T05:13:49;-0.30;99.90
7518;DHT22;3800;48.922;9.444;2024-01-30T05:16:18;-0.30;99.90
7518;DHT22;3800;48.922;9.444;2024-01-30T05:18:47;-0.30;99.90
7518;DHT22;3800;48.922;9.444;2024-01-30T05:21:15;-0.30;99.90
7518;DHT22;3800;48.922;9.444;2024-01-30T05:23:43;-0.30;99.90
7518;DHT22;3800;48.922;9.444;2024-01-30T05:26:12;-0.30;99.90
7518;DHT22;3800;48.922;9.444;2024-01-30T05:28:40;-0.30;99.90
7518;DHT22;3800;48.922;9.444;2024-01-30T05:31:08;-0.30;99.90
7518;DHT22;3800;48.922;9.444;2024-01-30T05:33:36;-0.20;99.90
7518;DHT22;3800;48.922;9.444;2024-01-30T05:36:05;-0.20;99.90
7518;DHT22;3800;48.922;9.444;2024-01-30T05:38:33;-0.20;99.90
7518;DHT22;3800;48.922;9.444;2024-01-30T05:41:02;-0.20;99.90
7518;DHT22;3800;48.922;9.444;2024-01-30T05:43:30;-0.20;99.90
7518;DHT22;3800;48.922;9.444;2024-01-30T05:45:59;-0.20;99.90
7518;DHT22;3800;48.922;9.444;2024-01-30T05:48:27;-0.20;99.90
7518;DHT22;3800;48.922;9.444;2024-01-30T05:50:55;-0.20;99.90
7518;DHT22;3800;48.922;9.444;2024-01-30T05:53:24;-0.20;99.90
7518;DHT22;3800;48.922;9.444;2024-01-30T05:55:52;-0.20;99.90
7518;DHT22;3800;48.922;9.444;2024-01-30T05:58:21;-0.30;99.90
7518;DHT22;3800;48.922;9.444;2024-01-30T06:00:49;-0.20;99.90
7518;DHT22;3800;48.922;9.444;2024-01-30T06:03:17;-0.20;99.90
7518;DHT22;3800;48.922;9.444;2024-01-30T06:05:45;-0.30;99.90
7518;DHT22;3800;48.922;9.444;2024-01-30T06:08:15;-0.20;99.90
7518;DHT22;3800;48.922;9.444;2024-01-30T06:10:43;-0.20;99.90
7518;DHT22;3800;48.922;9.444;2024-01-30T06:13:11;-0.20;99.90
7518;DHT22;3800;48.922;9.444;2024-01-30T06:15:39;-0.20;99.90
7518;DHT22;3800;48.922;9.444;2024-01-30T06:18:08;-0.10;99.90
7518;DHT22;3800;48.922;9.444;2024-01-30T06:20:36;-0.10;99.90
7518;DHT22;3800;48.922;9.444;2024-01-30T06:23:04;-0.10;99.90
7518;DHT22;3800;48.922;9.444;2024-01-30T06:25:32;-0.10;99.90
7518;DHT22;3800;48.922;9.444;2024-01-30T06:28:01;-0.10;99.90
7518;DHT22;3800;48.922;9.444;2024-01-30T06:30:29;-0.10;99.90
7518;DHT22;3800;48.922;9.444;2024-01-30T06:32:57;-0.10;99.90
7518;DHT22;3800;48.922;9.444;2024-01-30T06:35:26;-0.10;99.90
7518;DHT22;3800;48.922;9.444;2024-01-30T06:37:55;-0.10;99.90
7518;DHT22;3800;48.922;9.444;2024-01-30T06:40:23;-0.10;99.90
7518;DHT22;3800;48.922;9.444;2024-01-30T06:42:51;-0.10;99.90
7518;DHT22;3800;48.922;9.444;2024-01-30T06:45:20;-0.10;99.90
7518;DHT22;3800;48.922;9.444;2024-01-30T06:47:48;-0.10;99.90
7518;DHT22;3800;48.922;9.444;2024-01-30T06:50:16;-0.20;99.90
7518;DHT22;3800;48.922;9.444;2024-01-30T06:52:44;-0.20;99.90
7518;DHT22;3800;48.922;9.444;2024-01-30T06:55:13;-0.20;99.90
7518;DHT22;3800;48.922;9.444;2024-01-30T06:57:41;-0.20;99.90
7518;DHT22;3800;48.922;9.444;2024-01-30T07:00:10;-0.20;99.90
7518;DHT22;3800;48.922;9.444;2024-01-30T07:02:39;-0.20;99.90
7518;DHT22;3800;48.922;9.444;2024-01-30T07:05:08;-0.10;99.90
7518;DHT22;3800;48.922;9.444;2024-01-30T07:07:36;-0.10;99.90
7518;DHT22;3800;48.922;9.444;2024-01-30T07:10:05;-0.10;99.90
7518;DHT22;3800;48.922;9.444;2024-01-30T07:12:35;-0.10;99.90
7518;DHT22;3800;48.922;9.444;2024-01-30T07:15:03;-0.10;99.90
7518;DHT22;3800;48.922;9.444;2024-01-30T07:17:32;0.00;99.90
7518;DHT22;3800;48.922;9.444;2024-01-30T07:20:00;-0.10;99.90
7518;DHT22;3800;48.922;9.444;2024-01-30T07:22:29;0.00;99.90
7518;DHT22;3800;48.922;9.444;2024-01-30T07:24:57;0.00;99.90
7518;DHT22;3800;48.922;9.444;2024-01-30T07:27:26;0.00;99.90
7518;DHT22;3800;48.922;9.444;2024-01-30T07:29:54;0.00;99.90
7518;DHT22;3800;48.922;9.444;2024-01-30T07:32:23;0.10;99.90
7518;DHT22;3800;48.922;9.444;2024-01-30T07:34:52;0.10;99.90
7518;DHT22;3800;48.922;9.444;2024-01-30T07:37:20;0.10;99.90
7518;DHT22;3800;48.922;9.444;2024-01-30T07:39:48;0.10;99.90
7518;DHT22;3800;48.922;9.444;2024-01-30T07:42:16;0.20;99.90
7518;DHT22;3800;48.922;9.444;2024-01-30T07:44:45;0.20;99.90
7518;DHT22;3800;48.922;9.444;2024-01-30T07:47:13;0.20;99.90
7518;DHT22;3800;48.922;9.444;2024-01-30T07:49:41;0.20;99.90
7518;DHT22;3800;48.922;9.444;2024-01-30T07:52:09;0.20;99.90
7518;DHT22;3800;48.922;9.444;2024-01-30T07:54:38;0.20;99.90
7518;DHT22;3800;48.922;9.444;2024-01-30T07:57:06;0.30;99.90
7518;DHT22;3800;48.922;9.444;2024-01-30T07:59:35;0.30;99.90
7518;DHT22;3800;48.922;9.444;2024-01-30T08:02:04;0.30;99.90
7518;DHT22;3800;48.922;9.444;2024-01-30T08:04:32;0.40;99.90
7518;DHT22;3800;48.922;9.444;2024-01-30T08:07:01;0.40;99.90
7518;DHT22;3800;48.922;9.444;2024-01-30T08:09:29;0.50;99.90
7518;DHT22;3800;48.922;9.444;2024-01-30T08:11:58;0.60;99.90
7518;DHT22;3800;48.922;9.444;2024-01-30T08:14:26;0.50;99.90
7518;DHT22;3800;48.922;9.444;2024-01-30T08:16:54;0.60;99.90
7518;DHT22;3800;48.922;9.444;2024-01-30T08:19:23;0.50;99.90
7518;DHT22;3800;48.922;9.444;2024-01-30T08:21:51;0.60;99.90
7518;DHT22;3800;48.922;9.444;2024-01-30T08:24:19;0.60;99.90
7518;DHT22;3800;48.922;9.444;2024-01-30T08:26:48;0.70;99.90
7518;DHT22;3800;48.922;9.444;2024-01-30T08:29:16;0.80;99.90
7518;DHT22;3800;48.922;9.444;2024-01-30T08:31:45;0.80;99.90
7518;DHT22;3800;48.922;9.444;2024-01-30T08:34:14;1.00;99.90
7518;DHT22;3800;48.922;9.444;2024-01-30T08:36:43;1.00;99.90
7518;DHT22;3800;48.922;9.444;2024-01-30T08:39:11;1.10;99.90
7518;DHT22;3800;48.922;9.444;2024-01-30T08:41:39;1.20;99.90
7518;DHT22;3800;48.922;9.444;2024-01-30T08:44:07;1.20;99.90
7518;DHT22;3800;48.922;9.444;2024-01-30T08:46:36;1.30;99.90
7518;DHT22;3800;48.922;9.444;2024-01-30T08:49:04;1.40;99.90
7518;DHT22;3800;48.922;9.444;2024-01-30T08:51:32;1.50;99.90
7518;DHT22;3800;48.922;9.444;2024-01-30T08:54:01;1.60;99.90
7518;DHT22;3800;48.922;9.444;2024-01-30T08:56:29;1.60;99.90
7518;DHT22;3800;48.922;9.444;2024-01-30T08:58:57;1.70;99.90
7518;DHT22;3800;48.922;9.444;2024-01-30T09:01:25;1.80;99.90
7518;DHT22;3800;48.922;9.444;2024-01-30T09:03:54;1.90;99.90
7518;DHT22;3800;48.922;9.444;2024-01-30T09:06:22;2.00;99.90
7518;DHT22;3800;48.922;9.444;2024-01-30T09:08:50;2.10;99.90
7518;DHT22;3800;48.922;9.444;2024-01-30T09:11:18;2.10;99.90
7518;DHT22;3800;48.922;9.444;2024-01-30T09:13:47;2.20;99.90
7518;DHT22;3800;48.922;9.444;2024-01-30T09:16:15;2.30;99.90
7518;DHT22;3800;48.922;9.444;2024-01-30T09:18:45;2.40;99.90
7518;DHT22;3800;48.922;9.444;2024-01-30T09:21:13;2.40;99.90
7518;DHT22;3800;48.922;9.444;2024-01-30T09:23:41;2.50;99.90
7518;DHT22;3800;48.922;9.444;2024-01-30T09:26:10;2.60;99.90
7518;DHT22;3800;48.922;9.444;2024-01-30T09:28:38;2.70;99.90
7518;DHT22;3800;48.922;9.444;2024-01-30T09:31:11;2.80;99.90
7518;DHT22;3800;48.922;9.444;2024-01-30T09:33:39;2.90;99.90
7518;DHT22;3800;48.922;9.444;2024-01-30T09:36:08;3.00;99.90
7518;DHT22;3800;48.922;9.444;2024-01-30T09:38:37;3.00;99.90
7518;DHT22;3800;48.922;9.444;2024-01-30T09:41:07;3.10;99.90
7518;DHT22;3800;48.922;9.444;2024-01-30T09:43:34;3.20;99.90
7518;DHT22;3800;48.922;9.444;2024-01-30T09:46:02;3.30;99.90
7518;DHT22;3800;48.922;9.444;2024-01-30T09:48:32;3.40;99.90
7518;DHT22;3800;48.922;9.444;2024-01-30T09:51:00;3.40;99.90
7518;DHT22;3800;48.922;9.444;2024-01-30T09:53:29;3.50;99.90
7518;DHT22;3800;48.922;9.444;2024-01-30T09:55:58;3.60;99.90
7518;DHT22;3800;48.922;9.444;2024-01-30T09:58:26;3.70;99.90
7518;DHT22;3800;48.922;9.444;2024-01-30T10:00:54;3.80;99.90
7518;DHT22;3800;48.922;9.444;2024-01-30T10:03:24;4.00;99.90
7518;DHT22;3800;48.922;9.444;2024-01-30T10:05:53;4.00;99.90
7518;DHT22;3800;48.922;9.444;2024-01-30T10:08:21;4.20;99.90
7518;DHT22;3800;48.922;9.444;2024-01-30T10:13:16;4.40;99.90
7518;DHT22;3800;48.922;9.444;2024-01-30T10:15:44;4.50;99.90
7518;DHT22;3800;48.922;9.444;2024-01-30T10:18:12;4.60;99.90
7518;DHT22;3800;48.922;9.444;2024-01-30T10:20:40;4.70;99.90
7518;DHT22;3800;48.922;9.444;2024-01-30T10:23:08;4.70;99.90
7518;DHT22;3800;48.922;9.444;2024-01-30T10:25:37;4.80;99.90
7518;DHT22;3800;48.922;9.444;2024-01-30T10:28:06;4.90;99.90
7518;DHT22;3800;48.922;9.444;2024-01-30T10:30:35;4.90;99.90
7518;DHT22;3800;48.922;9.444;2024-01-30T10:33:04;5.00;99.90
7518;DHT22;3800;48.922;9.444;2024-01-30T10:35:32;5.10;99.90
7518;DHT22;3800;48.922;9.444;2024-01-30T10:38:01;5.30;99.90
7518;DHT22;3800;48.922;9.444;2024-01-30T10:40:30;5.30;99.90
7518;DHT22;3800;48.922;9.444;2024-01-30T10:42:58;5.40;99.90
7518;DHT22;3800;48.922;9.444;2024-01-30T10:45:26;5.50;99.90
7518;DHT22;3800;48.922;9.444;2024-01-30T10:47:55;5.60;99.90
7518;DHT22;3800;48.922;9.444;2024-01-30T10:50:24;5.80;99.90
7518;DHT22;3800;48.922;9.444;2024-01-30T10:52:53;5.70;99.90
7518;DHT22;3800;48.922;9.444;2024-01-30T10:55:21;5.90;99.90
7518;DHT22;3800;48.922;9.444;2024-01-30T10:57:49;6.00;99.90
7518;DHT22;3800;48.922;9.444;2024-01-30T11:00:18;6.10;99.90
7518;DHT22;3800;48.922;9.444;2024-01-30T11:02:46;6.20;99.90
7518;DHT22;3800;48.922;9.444;2024-01-30T11:05:14;6.30;99.90
7518;DHT22;3800;48.922;9.444;2024-01-30T11:07:43;6.40;99.90
7518;DHT22;3800;48.922;9.444;2024-01-30T11:10:11;6.50;99.90
7518;DHT22;3800;48.922;9.444;2024-01-30T11:12:40;6.60;99.90
7518;DHT22;3800;48.922;9.444;2024-01-30T11:15:08;6.70;99.90
7518;DHT22;3800;48.922;9.444;2024-01-30T11:17:44;6.80;99.90
7518;DHT22;3800;48.922;9.444;2024-01-30T11:20:16;7.00;99.90
7518;DHT22;3800;48.922;9.444;2024-01-30T11:22:46;7.00;99.90
7518;DHT22;3800;48.922;9.444;2024-01-30T11:25:15;7.10;99.90
7518;DHT22;3800;48.922;9.444;2024-01-30T11:27:44;7.30;99.90
7518;DHT22;3800;48.922;9.444;2024-01-30T11:30:26;7.20;99.90
7518;DHT22;3800;48.922;9.444;2024-01-30T11:33:01;7.30;99.90
7518;DHT22;3800;48.922;9.444;2024-01-30T11:35:29;7.40;99.90
7518;DHT22;3800;48.922;9.444;2024-01-30T11:37:57;7.50;99.90
7518;DHT22;3800;48.922;9.444;2024-01-30T11:40:27;7.50;99.90
7518;DHT22;3800;48.922;9.444;2024-01-30T11:42:55;7.70;99.90
7518;DHT22;3800;48.922;9.444;2024-01-30T11:45:24;7.70;99.90
7518;DHT22;3800;48.922;9.444;2024-01-30T11:47:52;7.80;99.90
7518;DHT22;3800;48.922;9.444;2024-01-30T11:50:20;7.90;99.90
7518;DHT22;3800;48.922;9.444;2024-01-30T11:52:49;8.00;99.90
7518;DHT22;3800;48.922;9.444;2024-01-30T11:55:17;8.10;99.90
7518;DHT22;3800;48.922;9.444;2024-01-30T11:57:45;8.10;99.90
7518;DHT22;3800;48.922;9.444;2024-01-30T12:00:18;8.30;99.90
7518;DHT22;3800;48.922;9.444;2024-01-30T12:02:49;8.30;99.90
7518;DHT22;3800;48.922;9.444;2024-01-30T12:05:19;8.40;99.90
7518;DHT22;3800;48.922;9.444;2024-01-30T12:07:46;8.50;99.90
7518;DHT22;3800;48.922;9.444;2024-01-30T12:10:15;8.60;99.90
7518;DHT22;3800;48.922;9.444;2024-01-30T12:12:44;8.60;99.90
7518;DHT22;3800;48.922;9.444;2024-01-30T12:15:14;8.70;99.90
7518;DHT22;3800;48.922;9.444;2024-01-30T12:17:42;8.80;99.90
7518;DHT22;3800;48.922;9.444;2024-01-30T12:20:11;8.90;99.90
7518;DHT22;3800;48.922;9.444;2024-01-30T12:22:40;8.90;99.90
7518;DHT22;3800;48.922;9.444;2024-01-30T12:25:11;8.90;99.90
7518;DHT22;3800;48.922;9.444;2024-01-30T12:27:41;9.00;99.90
7518;DHT22;3800;48.922;9.444;2024-01-30T12:30:12;9.00;99.90
7518;DHT22;3800;48.922;9.444;2024-01-30T12:32:41;9.10;99.90
7518;DHT22;3800;48.922;9.444;2024-01-30T12:35:15;9.10;99.90
7518;DHT22;3800;48.922;9.444;2024-01-30T12:37:43;9.10;99.90
7518;DHT22;3800;48.922;9.444;2024-01-30T12:40:13;9.20;99.90
7518;DHT22;3800;48.922;9.444;2024-01-30T12:42:41;9.20;99.90
7518;DHT22;3800;48.922;9.444;2024-01-30T12:45:09;9.30;99.90
7518;DHT22;3800;48.922;9.444;2024-01-30T12:47:38;9.30;99.90
7518;DHT22;3800;48.922;9.444;2024-01-30T12:50:06;9.40;99.90
7518;DHT22;3800;48.922;9.444;2024-01-30T12:52:35;9.40;99.90
7518;DHT22;3800;48.922;9.444;2024-01-30T12:55:03;9.40;99.90
7518;DHT22;3800;48.922;9.444;2024-01-30T12:57:31;9.40;99.90
7518;DHT22;3800;48.922;9.444;2024-01-30T12:59:59;9.50;99.90
7518;DHT22;3800;48.922;9.444;2024-01-30T13:02:28;9.50;99.90
7518;DHT22;3800;48.922;9.444;2024-01-30T13:04:57;9.50;99.90
7518;DHT22;3800;48.922;9.444;2024-01-30T13:07:25;9.60;99.90
7518;DHT22;3800;48.922;9.444;2024-01-30T13:09:54;9.60;99.90
7518;DHT22;3800;48.922;9.444;2024-01-30T13:12:22;9.60;99.90
7518;DHT22;3800;48.922;9.444;2024-01-30T13:14:51;9.70;99.90
7518;DHT22;3800;48.922;9.444;2024-01-30T13:17:19;9.70;99.90
7518;DHT22;3800;48.922;9.444;2024-01-30T13:19:48;9.70;99.90
7518;DHT22;3800;48.922;9.444;2024-01-30T13:22:16;9.70;99.90
7518;DHT22;3800;48.922;9.444;2024-01-30T13:24:44;9.80;99.90
7518;DHT22;3800;48.922;9.444;2024-01-30T13:27:13;9.80;99.90
7518;DHT22;3800;48.922;9.444;2024-01-30T13:29:42;9.80;99.90
7518;DHT22;3800;48.922;9.444;2024-01-30T13:32:11;9.80;99.90
7518;DHT22;3800;48.922;9.444;2024-01-30T13:34:40;9.80;99.90
7518;DHT22;3800;48.922;9.444;2024-01-30T13:37:08;9.80;99.90
7518;DHT22;3800;48.922;9.444;2024-01-30T13:39:37;9.80;99.90
7518;DHT22;3800;48.922;9.444;2024-01-30T13:42:05;9.80;99.90
7518;DHT22;3800;48.922;9.444;2024-01-30T13:44:35;9.80;99.90
7518;DHT22;3800;48.922;9.444;2024-01-30T13:47:02;9.80;99.90
7518;DHT22;3800;48.922;9.444;2024-01-30T13:49:31;9.90;99.90
7518;DHT22;3800;48.922;9.444;2024-01-30T13:51:59;9.90;99.90
7518;DHT22;3800;48.922;9.444;2024-01-30T13:54:28;9.90;99.90
7518;DHT22;3800;48.922;9.444;2024-01-30T13:56:57;9.90;99.90
7518;DHT22;3800;48.922;9.444;2024-01-30T13:59:24;9.90;99.90
7518;DHT22;3800;48.922;9.444;2024-01-30T14:01:53;10.00;99.90
7518;DHT22;3800;48.922;9.444;2024-01-30T14:04:22;10.00;99.90
7518;DHT22;3800;48.922;9.444;2024-01-30T14:06:50;10.00;99.90
7518;DHT22;3800;48.922;9.444;2024-01-30T14:09:19;10.00;99.90
7518;DHT22;3800;48.922;9.444;2024-01-30T14:11:47;10.00;99.90
7518;DHT22;3800;48.922;9.444;2024-01-30T14:14:16;10.00;99.90
7518;DHT22;3800;48.922;9.444;2024-01-30T14:16:46;10.00;99.90
7518;DHT22;3800;48.922;9.444;2024-01-30T14:19:15;10.00;99.90
7518;DHT22;3800;48.922;9.444;2024-01-30T14:21:44;10.00;99.90
7518;DHT22;3800;48.922;9.444;2024-01-30T14:24:12;9.90;99.90
7518;DHT22;3800;48.922;9.444;2024-01-30T14:26:40;9.90;99.90
7518;DHT22;3800;48.922;9.444;2024-01-30T14:29:08;9.90;99.90
7518;DHT22;3800;48.922;9.444;2024-01-30T14:31:37;9.90;99.90
7518;DHT22;3800;48.922;9.444;2024-01-30T14:34:06;9.80;99.90
7518;DHT22;3800;48.922;9.444;2024-01-30T14:36:34;9.80;99.90
7518;DHT22;3800;48.922;9.444;2024-01-30T14:39:02;9.70;99.90
7518;DHT22;3800;48.922;9.444;2024-01-30T14:41:31;9.70;99.90
7518;DHT22;3800;48.922;9.444;2024-01-30T14:43:59;9.70;99.90
7518;DHT22;3800;48.922;9.444;2024-01-30T14:46:28;9.70;99.90
7518;DHT22;3800;48.922;9.444;2024-01-30T14:48:56;9.70;99.90
7518;DHT22;3800;48.922;9.444;2024-01-30T14:51:24;9.70;99.90
7518;DHT22;3800;48.922;9.444;2024-01-30T14:53:53;9.70;99.90
7518;DHT22;3800;48.922;9.444;2024-01-30T14:56:21;9.70;99.90
7518;DHT22;3800;48.922;9.444;2024-01-30T14:58:49;9.60;99.90
7518;DHT22;3800;48.922;9.444;2024-01-30T15:01:18;9.60;99.90
7518;DHT22;3800;48.922;9.444;2024-01-30T15:03:47;9.60;99.90
7518;DHT22;3800;48.922;9.444;2024-01-30T15:06:15;9.50;99.90
7518;DHT22;3800;48.922;9.444;2024-01-30T15:08:43;9.50;99.90
7518;DHT22;3800;48.922;9.444;2024-01-30T15:11:11;9.50;99.90
7518;DHT22;3800;48.922;9.444;2024-01-30T15:13:40;9.50;99.90
7518;DHT22;3800;48.922;9.444;2024-01-30T15:16:08;9.50;99.90
7518;DHT22;3800;48.922;9.444;2024-01-30T15:18:36;9.40;99.90
7518;DHT22;3800;48.922;9.444;2024-01-30T15:21:05;9.40;99.90
7518;DHT22;3800;48.922;9.444;2024-01-30T15:23:33;9.40;99.90
7518;DHT22;3800;48.922;9.444;2024-01-30T15:26:02;9.30;99.90
7518;DHT22;3800;48.922;9.444;2024-01-30T15:28:35;9.30;99.90
7518;DHT22;3800;48.922;9.444;2024-01-30T15:31:05;9.20;99.90
7518;DHT22;3800;48.922;9.444;2024-01-30T15:33:33;9.10;99.90
7518;DHT22;3800;48.922;9.444;2024-01-30T15:36:03;9.20;99.90
7518;DHT22;3800;48.922;9.444;2024-01-30T15:38:31;9.10;99.90
7518;DHT22;3800;48.922;9.444;2024-01-30T15:41:01;9.10;99.90
7518;DHT22;3800;48.922;9.444;2024-01-30T15:43:29;9.10;99.90
7518;DHT22;3800;48.922;9.444;2024-01-30T15:45:57;9.10;99.90
7518;DHT22;3800;48.922;9.444;2024-01-30T15:48:25;9.10;99.90
7518;DHT22;3800;48.922;9.444;2024-01-30T15:50:54;9.00;99.90
7518;DHT22;3800;48.922;9.444;2024-01-30T15:53:22;9.00;99.90
7518;DHT22;3800;48.922;9.444;2024-01-30T15:55:54;8.90;99.90
7518;DHT22;3800;48.922;9.444;2024-01-30T15:58:22;8.80;99.90
7518;DHT22;3800;48.922;9.444;2024-01-30T16:00:51;8.70;99.90
7518;DHT22;3800;48.922;9.444;2024-01-30T16:03:19;8.70;99.90
7518;DHT22;3800;48.922;9.444;2024-01-30T16:05:47;8.70;99.90
7518;DHT22;3800;48.922;9.444;2024-01-30T16:08:16;8.60;99.90
7518;DHT22;3800;48.922;9.444;2024-01-30T16:10:44;8.60;99.90
7518;DHT22;3800;48.922;9.444;2024-01-30T16:13:12;8.50;99.90
7518;DHT22;3800;48.922;9.444;2024-01-30T16:15:40;8.50;99.90
7518;DHT22;3800;48.922;9.444;2024-01-30T16:18:09;8.50;99.90
7518;DHT22;3800;48.922;9.444;2024-01-30T16:20:38;8.40;99.90
7518;DHT22;3800;48.922;9.444;2024-01-30T16:23:07;8.30;99.90
7518;DHT22;3800;48.922;9.444;2024-01-30T16:25:35;8.30;99.90